sensor_id;sensor_type;location;lat;lon;timestamp;P1;durP1;ratioP1;P2;durP2;ratioP2
30723;SDS011;17473;52.286;20.930;2022-12-18T00:01:25;28.90;;;15.20;;
30723;SDS011;17473;52.286;20.930;2022-12-18T00:03:54;53.67;;;32.70;;
30723;SDS011;17473;52.286;20.930;2022-12-18T00:06:22;31.80;;;16.97;;
30723;SDS011;17473;52.286;20.930;2022-12-18T00:08:51;36.03;;;17.93;;
30723;SDS011;17473;52.286;20.930;2022-12-18T00:11:20;28.63;;;15.57;;
30723;SDS011;17473;52.286;20.930;2022-12-18T00:13:50;37.20;;;17.80;;
30723;SDS011;17473;52.286;20.930;2022-12-18T00:16:20;33.43;;;18.17;;
30723;SDS011;17473;52.286;20.930;2022-12-18T00:18:50;32.90;;;17.70;;
30723;SDS011;17473;52.286;20.930;2022-12-18T00:21:20;31.70;;;17.20;;
30723;SDS011;17473;52.286;20.930;2022-12-18T00:23:48;31.97;;;16.80;;
30723;SDS011;17473;52.286;20.930;2022-12-18T00:26:20;35.57;;;16.97;;
30723;SDS011;17473;52.286;20.930;2022-12-18T00:28:51;37.20;;;17.73;;
30723;SDS011;17473;52.286;20.930;2022-12-18T00:31:20;34.63;;;18.10;;
30723;SDS011;17473;52.286;20.930;2022-12-18T00:33:49;30.93;;;16.83;;
30723;SDS011;17473;52.286;20.930;2022-12-18T00:36:21;32.17;;;16.37;;
30723;SDS011;17473;52.286;20.930;2022-12-18T00:38:55;30.73;;;16.63;;
30723;SDS011;17473;52.286;20.930;2022-12-18T00:41:24;32.50;;;15.93;;
30723;SDS011;17473;52.286;20.930;2022-12-18T00:44:11;33.63;;;17.07;;
30723;SDS011;17473;52.286;20.930;2022-12-18T00:46:42;37.10;;;17.73;;
30723;SDS011;17473;52.286;20.930;2022-12-18T00:49:10;31.57;;;17.23;;
30723;SDS011;17473;52.286;20.930;2022-12-18T00:51:37;33.37;;;16.97;;
30723;SDS011;17473;52.286;20.930;2022-12-18T00:54:04;30.77;;;15.73;;
30723;SDS011;17473;52.286;20.930;2022-12-18T00:56:31;34.80;;;17.43;;
30723;SDS011;17473;52.286;20.930;2022-12-18T00:58:58;36.13;;;17.67;;
30723;SDS011;17473;52.286;20.930;2022-12-18T01:01:25;32.47;;;16.53;;
30723;SDS011;17473;52.286;20.930;2022-12-18T01:03:53;27.63;;;15.63;;
30723;SDS011;17473;52.286;20.930;2022-12-18T01:06:20;31.57;;;15.97;;
30723;SDS011;17473;52.286;20.930;2022-12-18T01:08:47;29.33;;;17.10;;
30723;SDS011;17473;52.286;20.930;2022-12-18T01:11:15;34.73;;;17.97;;
30723;SDS011;17473;52.286;20.930;2022-12-18T01:13:44;32.67;;;16.10;;
30723;SDS011;17473;52.286;20.930;2022-12-18T01:16:12;32.20;;;17.80;;
30723;SDS011;17473;52.286;20.930;2022-12-18T01:18:41;36.63;;;16.97;;
30723;SDS011;17473;52.286;20.930;2022-12-18T01:21:09;32.30;;;16.07;;
30723;SDS011;17473;52.286;20.930;2022-12-18T01:23:39;34.50;;;17.43;;
30723;SDS011;17473;52.286;20.930;2022-12-18T01:26:08;39.73;;;17.17;;
30723;SDS011;17473;52.286;20.930;2022-12-18T01:28:39;32.10;;;15.97;;
30723;SDS011;17473;52.286;20.930;2022-12-18T01:31:13;31.67;;;15.63;;
30723;SDS011;17473;52.286;20.930;2022-12-18T01:33:46;33.73;;;16.10;;
30723;SDS011;17473;52.286;20.930;2022-12-18T01:36:15;35.87;;;16.73;;
30723;SDS011;17473;52.286;20.930;2022-12-18T01:38:49;31.47;;;15.97;;
30723;SDS011;17473;52.286;20.930;2022-12-18T01:41:18;30.27;;;15.27;;
30723;SDS011;17473;52.286;20.930;2022-12-18T01:43:53;32.60;;;16.13;;
30723;SDS011;17473;52.286;20.930;2022-12-18T01:46:25;32.90;;;16.10;;
30723;SDS011;17473;52.286;20.930;2022-12-18T01:48:57;29.53;;;14.93;;
30723;SDS011;17473;52.286;20.930;2022-12-18T01:51:27;32.63;;;14.87;;
30723;SDS011;17473;52.286;20.930;2022-12-18T01:53:56;34.13;;;15.77;;
30723;SDS011;17473;52.286;20.930;2022-12-18T01:56:23;30.07;;;14.57;;
30723;SDS011;17473;52.286;20.930;2022-12-18T02:01:30;30.00;;;14.73;;
30723;SDS011;17473;52.286;20.930;2022-12-18T02:06:51;34.33;;;16.47;;
30723;SDS011;17473;52.286;20.930;2022-12-18T02:09:58;28.20;;;15.47;;
30723;SDS011;17473;52.286;20.930;2022-12-18T02:12:31;32.87;;;15.60;;
30723;SDS011;17473;52.286;20.930;2022-12-18T02:17:52;27.33;;;14.93;;
30723;SDS011;17473;52.286;20.930;2022-12-18T02:20:35;31.80;;;16.23;;
30723;SDS011;17473;52.286;20.930;2022-12-18T02:23:29;31.97;;;15.50;;
30723;SDS011;17473;52.286;20.930;2022-12-18T02:26:14;32.47;;;15.77;;
30723;SDS011;17473;52.286;20.930;2022-12-18T02:31:51;27.20;;;14.10;;
30723;SDS011;17473;52.286;20.930;2022-12-18T02:34:22;29.40;;;14.10;;
30723;SDS011;17473;52.286;20.930;2022-12-18T02:36:54;27.90;;;14.30;;
30723;SDS011;17473;52.286;20.930;2022-12-18T02:39:24;29.70;;;13.83;;
30723;SDS011;17473;52.286;20.930;2022-12-18T02:41:53;30.53;;;14.53;;
30723;SDS011;17473;52.286;20.930;2022-12-18T02:44:20;33.33;;;15.90;;
30723;SDS011;17473;52.286;20.930;2022-12-18T02:46:50;27.33;;;15.13;;
30723;SDS011;17473;52.286;20.930;2022-12-18T03:04:20;32.30;;;14.13;;
30723;SDS011;17473;52.286;20.930;2022-12-18T03:06:54;31.37;;;13.30;;
30723;SDS011;17473;52.286;20.930;2022-12-18T03:09:32;34.70;;;14.60;;
30723;SDS011;17473;52.286;20.930;2022-12-18T03:12:08;31.63;;;13.80;;
30723;SDS011;17473;52.286;20.930;2022-12-18T03:14:52;37.83;;;16.17;;
30723;SDS011;17473;52.286;20.930;2022-12-18T03:17:30;30.23;;;14.93;;
30723;SDS011;17473;52.286;20.930;2022-12-18T03:20:02;30.80;;;14.20;;
30723;SDS011;17473;52.286;20.930;2022-12-18T03:22:36;30.63;;;13.53;;
30723;SDS011;17473;52.286;20.930;2022-12-18T03:25:08;28.27;;;13.60;;
30723;SDS011;17473;52.286;20.930;2022-12-18T03:27:40;29.47;;;14.93;;
30723;SDS011;17473;52.286;20.930;2022-12-18T03:30:14;34.20;;;14.53;;
30723;SDS011;17473;52.286;20.930;2022-12-18T03:32:53;25.57;;;14.07;;
30723;SDS011;17473;52.286;20.930;2022-12-18T03:35:35;26.53;;;12.17;;
30723;SDS011;17473;52.286;20.930;2022-12-18T03:38:06;23.40;;;11.47;;
30723;SDS011;17473;52.286;20.930;2022-12-18T03:46:58;28.63;;;13.40;;
30723;SDS011;17473;52.286;20.930;2022-12-18T03:52:39;25.57;;;12.37;;
30723;SDS011;17473;52.286;20.930;2022-12-18T03:55:19;26.67;;;12.80;;
30723;SDS011;17473;52.286;20.930;2022-12-18T03:57:48;27.27;;;13.93;;
30723;SDS011;17473;52.286;20.930;2022-12-18T04:00:16;24.83;;;12.33;;
30723;SDS011;17473;52.286;20.930;2022-12-18T04:02:47;28.73;;;13.57;;
30723;SDS011;17473;52.286;20.930;2022-12-18T04:05:18;29.97;;;12.77;;
30723;SDS011;17473;52.286;20.930;2022-12-18T04:07:48;28.67;;;12.93;;
30723;SDS011;17473;52.286;20.930;2022-12-18T04:10:17;30.03;;;13.80;;
30723;SDS011;17473;52.286;20.930;2022-12-18T04:12:44;27.47;;;13.53;;
30723;SDS011;17473;52.286;20.930;2022-12-18T04:15:11;28.90;;;13.07;;
30723;SDS011;17473;52.286;20.930;2022-12-18T04:17:39;30.57;;;13.07;;
30723;SDS011;17473;52.286;20.930;2022-12-18T04:20:15;26.37;;;12.77;;
30723;SDS011;17473;52.286;20.930;2022-12-18T04:22:42;24.93;;;13.03;;
30723;SDS011;17473;52.286;20.930;2022-12-18T04:25:09;25.97;;;13.00;;
30723;SDS011;17473;52.286;20.930;2022-12-18T04:27:38;25.77;;;12.47;;
30723;SDS011;17473;52.286;20.930;2022-12-18T04:30:05;25.27;;;10.70;;
30723;SDS011;17473;52.286;20.930;2022-12-18T04:32:34;27.27;;;12.70;;
30723;SDS011;17473;52.286;20.930;2022-12-18T04:35:01;22.57;;;11.33;;
30723;SDS011;17473;52.286;20.930;2022-12-18T04:37:30;25.33;;;12.43;;
30723;SDS011;17473;52.286;20.930;2022-12-18T04:39:57;26.00;;;13.47;;
30723;SDS011;17473;52.286;20.930;2022-12-18T04:42:24;24.17;;;11.77;;
30723;SDS011;17473;52.286;20.930;2022-12-18T04:44:51;27.47;;;12.77;;
30723;SDS011;17473;52.286;20.930;2022-12-18T04:47:18;25.83;;;11.67;;
30723;SDS011;17473;52.286;20.930;2022-12-18T04:49:45;22.77;;;11.03;;
30723;SDS011;17473;52.286;20.930;2022-12-18T04:52:12;21.60;;;11.87;;
30723;SDS011;17473;52.286;20.930;2022-12-18T04:54:39;21.10;;;10.63;;
30723;SDS011;17473;52.286;20.930;2022-12-18T04:57:06;23.23;;;11.37;;
30723;SDS011;17473;52.286;20.930;2022-12-18T04:59:33;25.00;;;11.73;;
30723;SDS011;17473;52.286;20.930;2022-12-18T05:02:00;26.67;;;11.33;;
30723;SDS011;17473;52.286;20.930;2022-12-18T05:04:27;21.87;;;11.20;;
30723;SDS011;17473;52.286;20.930;2022-12-18T05:06:54;22.37;;;10.73;;
30723;SDS011;17473;52.286;20.930;2022-12-18T05:09:21;21.87;;;11.10;;
30723;SDS011;17473;52.286;20.930;2022-12-18T05:11:48;22.33;;;11.73;;
30723;SDS011;17473;52.286;20.930;2022-12-18T05:14:15;25.90;;;11.17;;
30723;SDS011;17473;52.286;20.930;2022-12-18T05:16:42;25.77;;;11.37;;
30723;SDS011;17473;52.286;20.930;2022-12-18T05:19:09;24.33;;;11.23;;
30723;SDS011;17473;52.286;20.930;2022-12-18T05:21:36;21.83;;;11.33;;
30723;SDS011;17473;52.286;20.930;2022-12-18T05:24:04;23.70;;;11.20;;
30723;SDS011;17473;52.286;20.930;2022-12-18T05:26:31;22.30;;;11.13;;
30723;SDS011;17473;52.286;20.930;2022-12-18T05:28:58;23.47;;;11.50;;
30723;SDS011;17473;52.286;20.930;2022-12-18T05:31:25;25.97;;;11.90;;
30723;SDS011;17473;52.286;20.930;2022-12-18T05:33:52;22.17;;;12.00;;
30723;SDS011;17473;52.286;20.930;2022-12-18T05:36:20;23.03;;;11.87;;
30723;SDS011;17473;52.286;20.930;2022-12-18T05:38:47;28.43;;;13.37;;
30723;SDS011;17473;52.286;20.930;2022-12-18T05:41:14;31.27;;;13.37;;
30723;SDS011;17473;52.286;20.930;2022-12-18T05:43:41;29.93;;;13.30;;
30723;SDS011;17473;52.286;20.930;2022-12-18T05:46:12;28.20;;;14.47;;
30723;SDS011;17473;52.286;20.930;2022-12-18T05:48:41;31.90;;;13.73;;
30723;SDS011;17473;52.286;20.930;2022-12-18T05:51:09;35.13;;;14.10;;
30723;SDS011;17473;52.286;20.930;2022-12-18T05:53:41;33.23;;;15.03;;
30723;SDS011;17473;52.286;20.930;2022-12-18T05:56:19;37.67;;;15.73;;
30723;SDS011;17473;52.286;20.930;2022-12-18T05:58:47;37.57;;;15.57;;
30723;SDS011;17473;52.286;20.930;2022-12-18T06:01:21;34.57;;;16.33;;
30723;SDS011;17473;52.286;20.930;2022-12-18T06:03:51;40.27;;;16.97;;
30723;SDS011;17473;52.286;20.930;2022-12-18T06:06:22;35.33;;;15.60;;
30723;SDS011;17473;52.286;20.930;2022-12-18T06:08:53;39.93;;;16.27;;
30723;SDS011;17473;52.286;20.930;2022-12-18T06:11:22;43.73;;;17.70;;
30723;SDS011;17473;52.286;20.930;2022-12-18T06:13:53;42.57;;;17.73;;
30723;SDS011;17473;52.286;20.930;2022-12-18T06:16:24;41.07;;;18.03;;
30723;SDS011;17473;52.286;20.930;2022-12-18T06:18:53;45.17;;;18.43;;
30723;SDS011;17473;52.286;20.930;2022-12-18T06:21:24;49.60;;;19.57;;
30723;SDS011;17473;52.286;20.930;2022-12-18T06:23:51;46.33;;;19.40;;
30723;SDS011;17473;52.286;20.930;2022-12-18T06:26:18;40.87;;;17.57;;
30723;SDS011;17473;52.286;20.930;2022-12-18T06:28:53;44.07;;;18.90;;
30723;SDS011;17473;52.286;20.930;2022-12-18T06:31:20;48.10;;;20.00;;
30723;SDS011;17473;52.286;20.930;2022-12-18T06:33:47;43.53;;;18.77;;
30723;SDS011;17473;52.286;20.930;2022-12-18T06:36:14;44.90;;;19.07;;
30723;SDS011;17473;52.286;20.930;2022-12-18T06:38:42;46.37;;;18.67;;
30723;SDS011;17473;52.286;20.930;2022-12-18T06:41:11;48.87;;;19.67;;
30723;SDS011;17473;52.286;20.930;2022-12-18T06:43:41;50.33;;;19.77;;
30723;SDS011;17473;52.286;20.930;2022-12-18T06:46:10;50.07;;;20.20;;
30723;SDS011;17473;52.286;20.930;2022-12-18T06:48:38;49.57;;;20.80;;
30723;SDS011;17473;52.286;20.930;2022-12-18T06:51:05;40.07;;;18.30;;
30723;SDS011;17473;52.286;20.930;2022-12-18T06:53:32;48.50;;;18.33;;
30723;SDS011;17473;52.286;20.930;2022-12-18T06:56:00;50.20;;;18.87;;
30723;SDS011;17473;52.286;20.930;2022-12-18T06:58:36;40.10;;;17.73;;
30723;SDS011;17473;52.286;20.930;2022-12-18T07:01:05;39.90;;;17.83;;
30723;SDS011;17473;52.286;20.930;2022-12-18T07:03:35;51.57;;;19.40;;
30723;SDS011;17473;52.286;20.930;2022-12-18T07:06:04;48.73;;;19.07;;
30723;SDS011;17473;52.286;20.930;2022-12-18T07:08:32;46.97;;;19.80;;
30723;SDS011;17473;52.286;20.930;2022-12-18T07:11:02;48.23;;;19.23;;
30723;SDS011;17473;52.286;20.930;2022-12-18T07:13:30;47.63;;;20.63;;
30723;SDS011;17473;52.286;20.930;2022-12-18T07:16:31;47.43;;;19.23;;
30723;SDS011;17473;52.286;20.930;2022-12-18T07:18:52;51.17;;;19.17;;
30723;SDS011;17473;52.286;20.930;2022-12-18T07:21:21;47.20;;;19.70;;
30723;SDS011;17473;52.286;20.930;2022-12-18T07:23:49;43.37;;;19.77;;
30723;SDS011;17473;52.286;20.930;2022-12-18T07:26:18;43.53;;;20.00;;
30723;SDS011;17473;52.286;20.930;2022-12-18T07:28:47;49.17;;;20.13;;
30723;SDS011;17473;52.286;20.930;2022-12-18T07:31:16;51.37;;;20.40;;
30723;SDS011;17473;52.286;20.930;2022-12-18T07:33:47;52.20;;;21.27;;
30723;SDS011;17473;52.286;20.930;2022-12-18T07:36:15;44.37;;;19.70;;
30723;SDS011;17473;52.286;20.930;2022-12-18T07:38:42;49.97;;;20.60;;
30723;SDS011;17473;52.286;20.930;2022-12-18T07:41:12;51.70;;;21.07;;
30723;SDS011;17473;52.286;20.930;2022-12-18T07:43:40;48.23;;;21.07;;
30723;SDS011;17473;52.286;20.930;2022-12-18T07:46:08;51.63;;;21.30;;
30723;SDS011;17473;52.286;20.930;2022-12-18T07:48:39;46.67;;;20.47;;
30723;SDS011;17473;52.286;20.930;2022-12-18T07:51:08;48.60;;;20.30;;
30723;SDS011;17473;52.286;20.930;2022-12-18T07:53:36;52.33;;;20.53;;
30723;SDS011;17473;52.286;20.930;2022-12-18T07:56:05;50.30;;;19.87;;
30723;SDS011;17473;52.286;20.930;2022-12-18T07:58:54;43.47;;;18.77;;
30723;SDS011;17473;52.286;20.930;2022-12-18T08:01:23;44.73;;;18.33;;
30723;SDS011;17473;52.286;20.930;2022-12-18T08:03:50;47.40;;;19.80;;
30723;SDS011;17473;52.286;20.930;2022-12-18T08:06:18;50.80;;;20.47;;
30723;SDS011;17473;52.286;20.930;2022-12-18T08:08:50;46.23;;;19.40;;
30723;SDS011;17473;52.286;20.930;2022-12-18T08:11:22;46.23;;;18.87;;
30723;SDS011;17473;52.286;20.930;2022-12-18T08:13:51;42.43;;;17.93;;
30723;SDS011;17473;52.286;20.930;2022-12-18T08:16:18;44.70;;;18.37;;
30723;SDS011;17473;52.286;20.930;2022-12-18T08:18:48;46.57;;;18.40;;
30723;SDS011;17473;52.286;20.930;2022-12-18T08:21:20;46.03;;;19.57;;
30723;SDS011;17473;52.286;20.930;2022-12-18T08:23:56;45.87;;;20.00;;
30723;SDS011;17473;52.286;20.930;2022-12-18T08:26:26;41.10;;;18.73;;
30723;SDS011;17473;52.286;20.930;2022-12-18T08:28:56;43.97;;;18.47;;
30723;SDS011;17473;52.286;20.930;2022-12-18T08:31:25;42.10;;;20.67;;
30723;SDS011;17473;52.286;20.930;2022-12-18T08:33:54;41.90;;;19.03;;
30723;SDS011;17473;52.286;20.930;2022-12-18T08:36:22;45.13;;;19.20;;
30723;SDS011;17473;52.286;20.930;2022-12-18T08:38:51;47.17;;;19.20;;
30723;SDS011;17473;52.286;20.930;2022-12-18T08:41:19;39.47;;;17.40;;
30723;SDS011;17473;52.286;20.930;2022-12-18T08:43:47;43.63;;;19.90;;
30723;SDS011;17473;52.286;20.930;2022-12-18T08:46:36;47.50;;;20.17;;
30723;SDS011;17473;52.286;20.930;2022-12-18T08:49:06;40.87;;;17.43;;
30723;SDS011;17473;52.286;20.930;2022-12-18T08:51:34;41.43;;;19.23;;
30723;SDS011;17473;52.286;20.930;2022-12-18T08:54:02;46.60;;;18.37;;
30723;SDS011;17473;52.286;20.930;2022-12-18T08:56:31;44.27;;;18.93;;
30723;SDS011;17473;52.286;20.930;2022-12-18T08:58:59;47.47;;;20.60;;
30723;SDS011;17473;52.286;20.930;2022-12-18T09:01:26;48.60;;;20.27;;
30723;SDS011;17473;52.286;20.930;2022-12-18T09:03:54;45.37;;;20.27;;
30723;SDS011;17473;52.286;20.930;2022-12-18T09:06:22;45.33;;;20.77;;
30723;SDS011;17473;52.286;20.930;2022-12-18T09:08:49;44.57;;;19.17;;
30723;SDS011;17473;52.286;20.930;2022-12-18T09:11:21;44.80;;;19.90;;
30723;SDS011;17473;52.286;20.930;2022-12-18T09:13:51;47.17;;;19.63;;
30723;SDS011;17473;52.286;20.930;2022-12-18T09:16:20;46.33;;;19.13;;
30723;SDS011;17473;52.286;20.930;2022-12-18T09:18:57;45.73;;;18.87;;
30723;SDS011;17473;52.286;20.930;2022-12-18T09:21:29;46.60;;;17.80;;
30723;SDS011;17473;52.286;20.930;2022-12-18T09:24:02;48.77;;;18.73;;
30723;SDS011;17473;52.286;20.930;2022-12-18T09:26:34;43.60;;;17.70;;
30723;SDS011;17473;52.286;20.930;2022-12-18T09:29:02;44.87;;;18.63;;
30723;SDS011;17473;52.286;20.930;2022-12-18T09:31:29;39.53;;;17.63;;
30723;SDS011;17473;52.286;20.930;2022-12-18T09:33:56;44.87;;;18.63;;
30723;SDS011;17473;52.286;20.930;2022-12-18T09:36:23;45.87;;;19.10;;
30723;SDS011;17473;52.286;20.930;2022-12-18T09:38:50;43.97;;;18.93;;
30723;SDS011;17473;52.286;20.930;2022-12-18T09:41:22;42.33;;;18.00;;
30723;SDS011;17473;52.286;20.930;2022-12-18T09:44:15;40.80;;;18.70;;
30723;SDS011;17473;52.286;20.930;2022-12-18T09:47:11;46.93;;;20.23;;
30723;SDS011;17473;52.286;20.930;2022-12-18T09:49:47;44.10;;;20.47;;
30723;SDS011;17473;52.286;20.930;2022-12-18T09:52:23;47.37;;;19.80;;
30723;SDS011;17473;52.286;20.930;2022-12-18T09:54:56;45.03;;;19.47;;
30723;SDS011;17473;52.286;20.930;2022-12-18T09:57:39;43.80;;;19.07;;
30723;SDS011;17473;52.286;20.930;2022-12-18T10:00:18;45.20;;;19.73;;
30723;SDS011;17473;52.286;20.930;2022-12-18T10:02:48;45.57;;;20.23;;
30723;SDS011;17473;52.286;20.930;2022-12-18T10:08:12;45.50;;;20.17;;
30723;SDS011;17473;52.286;20.930;2022-12-18T10:10:53;39.90;;;19.50;;
30723;SDS011;17473;52.286;20.930;2022-12-18T10:13:53;41.80;;;19.40;;
30723;SDS011;17473;52.286;20.930;2022-12-18T10:16:47;42.67;;;20.00;;
30723;SDS011;17473;52.286;20.930;2022-12-18T10:22:03;43.10;;;20.23;;
30723;SDS011;17473;52.286;20.930;2022-12-18T10:24:53;41.57;;;19.10;;
30723;SDS011;17473;52.286;20.930;2022-12-18T10:27:30;46.47;;;20.47;;
30723;SDS011;17473;52.286;20.930;2022-12-18T10:29:58;46.20;;;20.47;;
30723;SDS011;17473;52.286;20.930;2022-12-18T10:32:28;39.67;;;19.20;;
30723;SDS011;17473;52.286;20.930;2022-12-18T10:34:57;44.43;;;19.93;;
30723;SDS011;17473;52.286;20.930;2022-12-18T10:37:27;44.87;;;19.37;;
30723;SDS011;17473;52.286;20.930;2022-12-18T10:40:10;49.20;;;20.03;;
30723;SDS011;17473;52.286;20.930;2022-12-18T10:42:57;52.63;;;22.80;;
30723;SDS011;17473;52.286;20.930;2022-12-18T10:45:30;46.80;;;19.87;;
30723;SDS011;17473;52.286;20.930;2022-12-18T10:47:57;50.17;;;20.77;;
30723;SDS011;17473;52.286;20.930;2022-12-18T10:50:35;39.90;;;18.33;;
30723;SDS011;17473;52.286;20.930;2022-12-18T10:53:24;41.10;;;19.50;;
30723;SDS011;17473;52.286;20.930;2022-12-18T10:55:54;42.03;;;19.63;;
30723;SDS011;17473;52.286;20.930;2022-12-18T10:58:29;42.50;;;19.43;;
30723;SDS011;17473;52.286;20.930;2022-12-18T11:01:03;46.57;;;21.10;;
30723;SDS011;17473;52.286;20.930;2022-12-18T11:08:57;44.83;;;21.80;;
30723;SDS011;17473;52.286;20.930;2022-12-18T11:11:52;43.87;;;19.87;;
30723;SDS011;17473;52.286;20.930;2022-12-18T11:14:26;53.93;;;21.87;;
30723;SDS011;17473;52.286;20.930;2022-12-18T11:17:00;53.90;;;21.43;;
30723;SDS011;17473;52.286;20.930;2022-12-18T11:19:57;51.87;;;22.87;;
30723;SDS011;17473;52.286;20.930;2022-12-18T11:22:35;53.90;;;22.70;;
30723;SDS011;17473;52.286;20.930;2022-12-18T11:25:05;48.53;;;21.00;;
30723;SDS011;17473;52.286;20.930;2022-12-18T11:28:00;52.70;;;22.77;;
30723;SDS011;17473;52.286;20.930;2022-12-18T11:33:43;54.10;;;23.13;;
30723;SDS011;17473;52.286;20.930;2022-12-18T11:36:54;54.50;;;23.83;;
30723;SDS011;17473;52.286;20.930;2022-12-18T11:39:38;50.20;;;24.47;;
30723;SDS011;17473;52.286;20.930;2022-12-18T11:42:13;52.90;;;23.63;;
30723;SDS011;17473;52.286;20.930;2022-12-18T11:50:52;61.77;;;24.93;;
30723;SDS011;17473;52.286;20.930;2022-12-18T11:53:25;56.27;;;24.40;;
30723;SDS011;17473;52.286;20.930;2022-12-18T11:56:00;59.03;;;26.90;;
30723;SDS011;17473;52.286;20.930;2022-12-18T12:02:03;66.63;;;26.33;;
30723;SDS011;17473;52.286;20.930;2022-12-18T12:04:47;50.97;;;24.83;;
30723;SDS011;17473;52.286;20.930;2022-12-18T12:07:59;63.40;;;27.50;;
30723;SDS011;17473;52.286;20.930;2022-12-18T12:16:36;64.00;;;26.50;;
30723;SDS011;17473;52.286;20.930;2022-12-18T12:19:37;58.13;;;26.70;;
30723;SDS011;17473;52.286;20.930;2022-12-18T12:27:58;60.97;;;26.53;;
30723;SDS011;17473;52.286;20.930;2022-12-18T12:39:44;59.10;;;26.97;;
30723;SDS011;17473;52.286;20.930;2022-12-18T12:42:38;55.00;;;27.40;;
30723;SDS011;17473;52.286;20.930;2022-12-18T12:45:34;55.63;;;25.93;;
30723;SDS011;17473;52.286;20.930;2022-12-18T12:51:06;56.53;;;25.13;;
30723;SDS011;17473;52.286;20.930;2022-12-18T12:53:58;56.23;;;26.50;;
30723;SDS011;17473;52.286;20.930;2022-12-18T12:56:39;60.90;;;25.93;;
30723;SDS011;17473;52.286;20.930;2022-12-18T13:02:04;57.77;;;26.73;;
30723;SDS011;17473;52.286;20.930;2022-12-18T13:07:26;60.90;;;28.13;;
30723;SDS011;17473;52.286;20.930;2022-12-18T13:10:14;58.60;;;26.90;;
30723;SDS011;17473;52.286;20.930;2022-12-18T13:13:10;57.23;;;27.03;;
30723;SDS011;17473;52.286;20.930;2022-12-18T13:16:04;62.73;;;25.83;;
30723;SDS011;17473;52.286;20.930;2022-12-18T13:18:34;60.07;;;25.50;;
30723;SDS011;17473;52.286;20.930;2022-12-18T13:21:04;53.83;;;25.53;;
30723;SDS011;17473;52.286;20.930;2022-12-18T13:23:49;61.47;;;27.20;;
30723;SDS011;17473;52.286;20.930;2022-12-18T13:28:53;63.57;;;28.07;;
30723;SDS011;17473;52.286;20.930;2022-12-18T13:34:16;55.90;;;26.13;;
30723;SDS011;17473;52.286;20.930;2022-12-18T13:43:20;57.13;;;25.70;;
30723;SDS011;17473;52.286;20.930;2022-12-18T13:52:26;58.80;;;26.03;;
30723;SDS011;17473;52.286;20.930;2022-12-18T13:55:00;59.40;;;26.10;;
30723;SDS011;17473;52.286;20.930;2022-12-18T13:57:34;58.07;;;24.80;;
30723;SDS011;17473;52.286;20.930;2022-12-18T14:02:49;58.27;;;25.33;;
30723;SDS011;17473;52.286;20.930;2022-12-18T14:07:59;56.57;;;24.07;;
30723;SDS011;17473;52.286;20.930;2022-12-18T14:10:30;57.73;;;24.87;;
30723;SDS011;17473;52.286;20.930;2022-12-18T14:13:46;53.20;;;25.67;;
30723;SDS011;17473;52.286;20.930;2022-12-18T14:16:11;51.73;;;22.37;;
30723;SDS011;17473;52.286;20.930;2022-12-18T14:18:47;54.70;;;25.23;;
30723;SDS011;17473;52.286;20.930;2022-12-18T14:21:28;56.93;;;25.57;;
30723;SDS011;17473;52.286;20.930;2022-12-18T14:24:03;59.80;;;23.80;;
30723;SDS011;17473;52.286;20.930;2022-12-18T14:26:44;60.33;;;25.73;;
30723;SDS011;17473;52.286;20.930;2022-12-18T14:29:24;50.67;;;22.57;;
30723;SDS011;17473;52.286;20.930;2022-12-18T14:34:48;54.17;;;24.80;;
30723;SDS011;17473;52.286;20.930;2022-12-18T14:37:20;57.97;;;24.73;;
30723;SDS011;17473;52.286;20.930;2022-12-18T14:39:57;59.60;;;24.77;;
30723;SDS011;17473;52.286;20.930;2022-12-18T14:42:36;51.27;;;22.87;;
30723;SDS011;17473;52.286;20.930;2022-12-18T14:48:08;55.47;;;25.33;;
30723;SDS011;17473;52.286;20.930;2022-12-18T14:50:56;55.73;;;23.80;;
30723;SDS011;17473;52.286;20.930;2022-12-18T14:53:34;55.17;;;23.40;;
30723;SDS011;17473;52.286;20.930;2022-12-18T14:56:18;59.20;;;25.17;;
30723;SDS011;17473;52.286;20.930;2022-12-18T14:59:04;56.33;;;25.37;;
30723;SDS011;17473;52.286;20.930;2022-12-18T15:01:59;50.03;;;22.17;;
30723;SDS011;17473;52.286;20.930;2022-12-18T15:04:38;53.13;;;23.03;;
30723;SDS011;17473;52.286;20.930;2022-12-18T15:12:50;54.73;;;24.23;;
30723;SDS011;17473;52.286;20.930;2022-12-18T15:20:39;50.87;;;22.90;;
30723;SDS011;17473;52.286;20.930;2022-12-18T15:26:11;56.10;;;24.73;;
30723;SDS011;17473;52.286;20.930;2022-12-18T15:31:23;52.17;;;23.33;;
30723;SDS011;17473;52.286;20.930;2022-12-18T15:36:22;58.13;;;24.63;;
30723;SDS011;17473;52.286;20.930;2022-12-18T15:38:52;63.00;;;22.90;;
30723;SDS011;17473;52.286;20.930;2022-12-18T15:41:34;55.80;;;23.53;;
30723;SDS011;17473;52.286;20.930;2022-12-18T15:44:03;58.73;;;24.43;;
30723;SDS011;17473;52.286;20.930;2022-12-18T15:46:51;53.20;;;24.70;;
30723;SDS011;17473;52.286;20.930;2022-12-18T15:49:18;52.90;;;23.30;;
30723;SDS011;17473;52.286;20.930;2022-12-18T15:51:45;54.77;;;23.57;;
30723;SDS011;17473;52.286;20.930;2022-12-18T15:54:21;57.30;;;24.53;;
30723;SDS011;17473;52.286;20.930;2022-12-18T15:57:09;59.80;;;24.43;;
30723;SDS011;17473;52.286;20.930;2022-12-18T15:59:49;59.13;;;26.13;;
30723;SDS011;17473;52.286;20.930;2022-12-18T16:02:24;65.87;;;26.90;;
30723;SDS011;17473;52.286;20.930;2022-12-18T16:04:52;59.40;;;26.27;;
30723;SDS011;17473;52.286;20.930;2022-12-18T16:07:20;65.77;;;26.30;;
30723;SDS011;17473;52.286;20.930;2022-12-18T16:09:50;60.60;;;25.40;;
30723;SDS011;17473;52.286;20.930;2022-12-18T16:12:19;63.83;;;27.10;;
30723;SDS011;17473;52.286;20.930;2022-12-18T16:14:50;65.80;;;26.47;;
30723;SDS011;17473;52.286;20.930;2022-12-18T16:17:17;59.70;;;27.60;;
30723;SDS011;17473;52.286;20.930;2022-12-18T16:19:44;61.83;;;27.57;;
30723;SDS011;17473;52.286;20.930;2022-12-18T16:22:19;65.87;;;28.07;;
30723;SDS011;17473;52.286;20.930;2022-12-18T16:24:51;63.83;;;26.13;;
30723;SDS011;17473;52.286;20.930;2022-12-18T16:27:20;56.20;;;25.17;;
30723;SDS011;17473;52.286;20.930;2022-12-18T16:29:47;59.00;;;26.70;;
30723;SDS011;17473;52.286;20.930;2022-12-18T16:32:19;57.30;;;25.80;;
30723;SDS011;17473;52.286;20.930;2022-12-18T16:34:48;60.77;;;25.47;;
30723;SDS011;17473;52.286;20.930;2022-12-18T16:37:16;55.97;;;24.50;;
30723;SDS011;17473;52.286;20.930;2022-12-18T16:39:43;54.33;;;24.30;;
30723;SDS011;17473;52.286;20.930;2022-12-18T16:42:12;54.63;;;24.27;;
30723;SDS011;17473;52.286;20.930;2022-12-18T16:44:45;57.07;;;25.37;;
30723;SDS011;17473;52.286;20.930;2022-12-18T16:47:14;55.97;;;25.47;;
30723;SDS011;17473;52.286;20.930;2022-12-18T16:49:42;53.60;;;24.37;;
30723;SDS011;17473;52.286;20.930;2022-12-18T16:52:16;57.00;;;25.47;;
30723;SDS011;17473;52.286;20.930;2022-12-18T16:54:44;52.43;;;24.30;;
30723;SDS011;17473;52.286;20.930;2022-12-18T16:57:12;48.73;;;22.53;;
30723;SDS011;17473;52.286;20.930;2022-12-18T16:59:43;53.70;;;22.93;;